METAR AND TAF INFORMATION
METAR FOR KHCR
ADDS - METARS form results

(0252 UTC 17 May 2021)
Data provider http://aviationweather.gov/metar/data/
 
METAR text: KHCR 170235Z AUTO 22009G16KT 10SM SCT080 BKN110 15/01 A2988 RMK AO2
Conditions at: KHCR (HEBER/RUSS MCDON, UT, US) observed 0235 UTC 17 May 2021
Temperature: 15.0°C (59°F)
Dewpoint: 1.0°C (34°F) [RH = 39%]
Pressure (altimeter): 29.88 inches Hg (1011.9 mb)
Winds: from the SW (220 degrees) at 10 MPH (9 knots; 4.6 m/s)
gusting to 18 MPH (16 knots; 8.2 m/s)
Visibility: 10 or more miles (16+ km)
Ceiling: 11000 feet AGL
Clouds: scattered clouds at 8000 feet AGL
broken clouds at 11000 feet AGL
Weather: automated observation with no human augmentation;
there may or may not be significant weather present at this time

METAR text: KHCR 170215Z AUTO 22013G17KT 10SM BKN090 BKN110 17/00 A2988 RMK AO2
Conditions at: KHCR (HEBER/RUSS MCDON, UT, US) observed 0215 UTC 17 May 2021
Temperature: 17.0°C (63°F)
Dewpoint: 0.0°C (32°F) [RH = 32%]
Pressure (altimeter): 29.88 inches Hg (1011.9 mb)
Winds: from the SW (220 degrees) at 15 MPH (13 knots; 6.7 m/s)
gusting to 20 MPH (17 knots; 8.7 m/s)
Visibility: 10 or more miles (16+ km)
Ceiling: 9000 feet AGL
Clouds: broken clouds at 9000 feet AGL
broken clouds at 11000 feet AGL
Weather: automated observation with no human augmentation;
there may or may not be significant weather present at this time

METAR text: KHCR 170155Z AUTO 21010G15KT 10SM BKN080 BKN110 18/00 A2987 RMK AO2
Conditions at: KHCR (HEBER/RUSS MCDON, UT, US) observed 0155 UTC 17 May 2021
Temperature: 18.0°C (64°F)
Dewpoint: 0.0°C (32°F) [RH = 30%]
Pressure (altimeter): 29.87 inches Hg (1011.6 mb)
Winds: from the SSW (210 degrees) at 12 MPH (10 knots; 5.1 m/s)
gusting to 17 MPH (15 knots; 7.7 m/s)
Visibility: 10 or more miles (16+ km)
Ceiling: 8000 feet AGL
Clouds: broken clouds at 8000 feet AGL
broken clouds at 11000 feet AGL
Weather: automated observation with no human augmentation;
there may or may not be significant weather present at this time

Forecast for: KHCR (HEBER/RUSS MCDON, UT, US)
Text: KHCR 170000Z 1700/1724 22006KT P6SM VCSH BKN080
Forecast period: 0000 to 0200 UTC 17 May 2021
Forecast type: FROM: standard forecast or significant change
Winds: from the SW (220 degrees) at 7 MPH (6 knots; 3.1 m/s)
Visibility: 6 or more miles (10+ km)
Ceiling: 8000 feet AGL
Clouds: broken clouds at 8000 feet AGL
Weather: VCSH  (showers in vicinity)
Text: FM170200 VRB05KT P6SM SCT100
Forecast period: 0200 UTC 17 May 2021 to 0000 UTC 18 May 2021
Forecast type: FROM: standard forecast or significant change
Winds: variable direction winds at 6 MPH (5 knots; 2.6 m/s)
Visibility: 6 or more miles (10+ km)
Ceiling: at least 12,000 feet AGL
Clouds: scattered clouds at 10000 feet AGL
Weather: no significant weather forecast for this period

 AIRPORT MAP

 RUNWAY INFORMATION

 AIRPORT FREQUENCIES

 AIRPORT NEAR NAVIGATION AIDS

-